Time;durP1;ratioP1;P1;durP2;ratioP2;P2;SDS_P1;SDS_P2;PMS_P1;PMS_P2;Temp;Humidity;BMP_temperature;BMP_pressure;BME280_temperature;BME280_humidity;BME280_pressure;Samples;Min_cycle;Max_cycle;Signal;HPM_P1;HPM_P2
2023/08/22 00:01:29;;;;;;;6.20;4.63;;;;;;;;;;6306944;22;20174;-86
2023/08/22 00:03:57;;;;;;;8.40;4.27;;;;;;;;;;6305744;22;20177;-86
2023/08/22 00:06:27;;;;;;;9.27;6.10;;;;;;;;;;6306052;22;20176;-86
2023/08/22 00:08:56;;;;;;;10.60;7.20;;;;;;;;;;6306422;22;20245;-86
2023/08/22 00:11:24;;;;;;;8.93;4.43;;;;;;;;;;6306083;22;20183;-85
2023/08/22 00:13:53;;;;;;;8.50;5.97;;;;;;;;;;6306217;22;20176;-85
2023/08/22 00:16:23;;;;;;;10.90;6.47;;;;;;;;;;6305771;22;20188;-85
2023/08/22 00:18:51;;;;;;;16.13;7.87;;;;;;;;;;6306051;22;20173;-85
2023/08/22 00:21:20;;;;;;;10.53;6.37;;;;;;;;;;6306548;22;20175;-85
2023/08/22 00:23:50;;;;;;;11.80;8.70;;;;;;;;;;6305736;22;20178;-85
2023/08/22 00:26:18;;;;;;;9.73;7.13;;;;;;;;;;6305223;22;20169;-85
2023/08/22 00:28:47;;;;;;;8.73;6.97;;;;;;;;;;6306319;22;20180;-85
2023/08/22 00:31:15;;;;;;;13.20;9.00;;;;;;;;;;6306049;22;20188;-85
2023/08/22 00:33:44;;;;;;;11.23;8.80;;;;;;;;;;6305489;22;20197;-85
2023/08/22 00:36:12;;;;;;;13.13;7.93;;;;;;;;;;6305817;22;20173;-85
2023/08/22 00:38:41;;;;;;;17.30;10.67;;;;;;;;;;6305795;22;20211;-85
2023/08/22 00:41:10;;;;;;;13.57;8.93;;;;;;;;;;6305860;22;20171;-85
2023/08/22 00:43:39;;;;;;;11.83;6.50;;;;;;;;;;6305380;22;20168;-85
2023/08/22 00:46:07;;;;;;;15.80;11.30;;;;;;;;;;6306512;22;20458;-85
2023/08/22 00:48:36;;;;;;;19.17;11.83;;;;;;;;;;6306269;22;20172;-85
2023/08/22 00:51:04;;;;;;;14.13;9.27;;;;;;;;;;6305340;22;20200;-85
2023/08/22 00:53:34;;;;;;;15.43;10.10;;;;;;;;;;6305611;22;20179;-85
2023/08/22 00:56:03;;;;;;;9.97;8.97;;;;;;;;;;6305374;22;20204;-86
2023/08/22 00:58:33;;;;;;;15.27;9.80;;;;;;;;;;6306286;22;20182;-85
2023/08/22 01:01:02;;;;;;;16.13;13.03;;;;;;;;;;6305229;22;20177;-85
2023/08/22 01:03:30;;;;;;;8.63;7.17;;;;;;;;;;6306001;22;20176;-86
2023/08/22 01:06:03;;;;;;;16.00;9.30;;;;;;;;;;6305315;22;20174;-85
2023/08/22 01:08:34;;;;;;;12.77;9.87;;;;;;;;;;6305141;22;20182;-85
2023/08/22 01:11:07;;;;;;;7.63;4.83;;;;;;;;;;6305377;22;20196;-85
2023/08/22 01:13:39;;;;;;;11.63;7.60;;;;;;;;;;6305723;22;20176;-86
2023/08/22 01:16:07;;;;;;;11.60;8.10;;;;;;;;;;6304939;22;20180;-85
2023/08/22 01:18:36;;;;;;;16.03;8.40;;;;;;;;;;6304946;22;20182;-85
2023/08/22 01:21:05;;;;;;;14.03;8.33;;;;;;;;;;6305638;22;20175;-85
2023/08/22 01:23:35;;;;;;;14.40;8.80;;;;;;;;;;6305693;22;20185;-85
2023/08/22 01:26:04;;;;;;;10.33;7.80;;;;;;;;;;6305155;22;20263;-85
2023/08/22 01:28:37;;;;;;;18.13;8.00;;;;;;;;;;6305260;22;20176;-85
2023/08/22 01:31:10;;;;;;;13.67;9.37;;;;;;;;;;6305494;22;20210;-85
2023/08/22 01:33:41;;;;;;;15.33;10.50;;;;;;;;;;6305774;22;20173;-85
2023/08/22 01:36:10;;;;;;;18.93;10.83;;;;;;;;;;6304842;22;20182;-86
2023/08/22 01:38:41;;;;;;;17.03;10.43;;;;;;;;;;6305354;22;20196;-85
2023/08/22 01:41:10;;;;;;;17.80;8.43;;;;;;;;;;6305714;22;20174;-85
2023/08/22 01:43:40;;;;;;;5.97;3.97;;;;;;;;;;6305238;22;20173;-86
2023/08/22 01:46:08;;;;;;;12.30;7.47;;;;;;;;;;6304850;22;20176;-85
2023/08/22 01:48:37;;;;;;;13.03;8.73;;;;;;;;;;6305495;22;20180;-85
2023/08/22 01:51:06;;;;;;;15.77;10.93;;;;;;;;;;6305749;22;20196;-86
2023/08/22 01:53:34;;;;;;;13.90;8.90;;;;;;;;;;6305020;22;20204;-89
2023/08/22 01:56:04;;;;;;;12.57;8.33;;;;;;;;;;6305193;22;20207;-90
2023/08/22 01:58:33;;;;;;;8.33;4.43;;;;;;;;;;6305420;22;20194;-89
2023/08/22 02:01:09;;;;;;;21.50;10.63;;;;;;;;;;6305768;22;20202;-89
2023/08/22 02:03:38;;;;;;;10.20;8.83;;;;;;;;;;6304957;22;20172;-89
2023/08/22 02:06:07;;;;;;;14.30;9.47;;;;;;;;;;6305860;22;20237;-88
2023/08/22 02:08:36;;;;;;;10.27;7.37;;;;;;;;;;6305906;22;20271;-90
2023/08/22 02:11:05;;;;;;;5.67;4.03;;;;;;;;;;6305120;22;20186;-89
2023/08/22 02:13:34;;;;;;;0.63;0.60;;;;;;;;;;6305409;22;20180;-90
2023/08/22 02:16:03;;;;;;;10.73;7.07;;;;;;;;;;6305864;22;20176;-89
2023/08/22 02:18:32;;;;;;;8.70;5.87;;;;;;;;;;6305550;22;20287;-90
2023/08/22 02:21:01;;;;;;;10.00;5.00;;;;;;;;;;6304934;22;20172;-89
2023/08/22 02:23:31;;;;;;;10.80;7.30;;;;;;;;;;6305606;22;20184;-90
2023/08/22 02:26:00;;;;;;;9.17;6.43;;;;;;;;;;6306742;22;20172;-89
2023/08/22 02:28:33;;;;;;;13.60;7.97;;;;;;;;;;6306736;22;20219;-90
2023/08/22 02:31:02;;;;;;;12.53;8.47;;;;;;;;;;6307827;22;20227;-89
2023/08/22 02:33:30;;;;;;;14.60;7.87;;;;;;;;;;6307542;22;20172;-89
2023/08/22 02:35:59;;;;;;;16.20;7.97;;;;;;;;;;6307640;22;20196;-89
2023/08/22 02:38:27;;;;;;;9.47;6.93;;;;;;;;;;6306697;22;20208;-90
2023/08/22 02:40:56;;;;;;;11.60;6.47;;;;;;;;;;6307065;22;20176;-90
2023/08/22 02:43:24;;;;;;;4.17;3.80;;;;;;;;;;6307520;22;20168;-89
2023/08/22 02:45:54;;;;;;;16.00;6.70;;;;;;;;;;6307170;22;20182;-90
2023/08/22 02:48:23;;;;;;;12.67;7.30;;;;;;;;;;6306619;22;20230;-89
2023/08/22 02:50:51;;;;;;;9.00;6.50;;;;;;;;;;6307520;22;20205;-85
2023/08/22 02:53:20;;;;;;;2.67;1.67;;;;;;;;;;6306768;22;20184;-85
2023/08/22 02:55:48;;;;;;;6.37;5.20;;;;;;;;;;6306819;22;20172;-85
2023/08/22 02:58:17;;;;;;;15.40;6.43;;;;;;;;;;6307060;22;20183;-89
2023/08/22 03:00:46;;;;;;;8.13;6.83;;;;;;;;;;6307735;22;20347;-90
2023/08/22 03:03:17;;;;;;;11.60;6.57;;;;;;;;;;6307043;22;20173;-89
2023/08/22 03:05:45;;;;;;;3.93;2.50;;;;;;;;;;6306544;22;20168;-89
2023/08/22 03:08:13;;;;;;;0.47;0.47;;;;;;;;;;6307443;22;20176;-89
2023/08/22 03:10:42;;;;;;;0.73;0.73;;;;;;;;;;6307391;22;20200;-90
2023/08/22 03:13:11;;;;;;;0.30;0.30;;;;;;;;;;6306339;22;20184;-88
2023/08/22 03:15:39;;;;;;;1.17;1.07;;;;;;;;;;6306386;22;20165;-89
2023/08/22 03:18:08;;;;;;;0.40;0.40;;;;;;;;;;6306969;22;20225;-90
2023/08/22 03:20:38;;;;;;;0.70;0.70;;;;;;;;;;6306877;22;20222;-90
2023/08/22 03:23:06;;;;;;;1.07;1.07;;;;;;;;;;6306625;22;20195;-89
2023/08/22 03:25:35;;;;;;;1.50;1.50;;;;;;;;;;6307193;22;20183;-89
2023/08/22 03:28:03;;;;;;;2.40;2.33;;;;;;;;;;6306544;22;20179;-90
2023/08/22 03:30:32;;;;;;;0.30;0.30;;;;;;;;;;6306498;22;20168;-89
2023/08/22 03:33:00;;;;;;;0.40;0.40;;;;;;;;;;6307306;22;20192;-90
2023/08/22 03:35:29;;;;;;;0.80;0.80;;;;;;;;;;6306561;22;20169;-89
2023/08/22 03:37:59;;;;;;;1.70;1.63;;;;;;;;;;6306535;22;20177;-89
2023/08/22 03:40:27;;;;;;;1.13;1.13;;;;;;;;;;6306276;22;20201;-90
2023/08/22 03:42:55;;;;;;;2.20;2.03;;;;;;;;;;6307218;22;20163;-90
2023/08/22 03:45:24;;;;;;;2.87;2.53;;;;;;;;;;6306383;22;20173;-84
2023/08/22 03:47:52;;;;;;;1.37;1.37;;;;;;;;;;6306460;22;20203;-86
2023/08/22 03:50:21;;;;;;;0.90;0.90;;;;;;;;;;6305991;22;20257;-85
2023/08/22 03:52:49;;;;;;;0.60;0.60;;;;;;;;;;6306760;22;20192;-85
2023/08/22 03:55:19;;;;;;;2.20;1.00;;;;;;;;;;6306622;22;20267;-85
2023/08/22 03:57:48;;;;;;;0.60;0.60;;;;;;;;;;6305513;22;20181;-85
2023/08/22 04:00:17;;;;;;;8.53;6.10;;;;;;;;;;6306915;22;20168;-85
2023/08/22 04:02:45;;;;;;;16.87;8.97;;;;;;;;;;6306740;22;20169;-85
2023/08/22 04:05:14;;;;;;;19.03;10.73;;;;;;;;;;6305907;22;20210;-87
2023/08/22 04:07:42;;;;;;;18.90;11.80;;;;;;;;;;6306017;22;20174;-85
2023/08/22 04:10:11;;;;;;;12.07;7.50;;;;;;;;;;6306500;22;20176;-85
2023/08/22 04:12:41;;;;;;;11.17;6.87;;;;;;;;;;6306195;22;20189;-86
2023/08/22 04:15:10;;;;;;;17.60;9.57;;;;;;;;;;6306040;22;20181;-85
2023/08/22 04:17:41;;;;;;;8.07;6.57;;;;;;;;;;6305335;22;20218;-86
2023/08/22 04:20:10;;;;;;;11.40;7.33;;;;;;;;;;6306182;22;20168;-85
2023/08/22 04:22:40;;;;;;;15.80;10.03;;;;;;;;;;6306232;22;20162;-85
2023/08/22 04:25:08;;;;;;;14.60;10.73;;;;;;;;;;6305929;22;20177;-90
2023/08/22 04:27:38;;;;;;;14.37;10.93;;;;;;;;;;6306080;22;20188;-89
2023/08/22 04:30:09;;;;;;;22.87;9.17;;;;;;;;;;6306453;22;20203;-90
2023/08/22 04:32:37;;;;;;;14.63;11.10;;;;;;;;;;6305829;22;20192;-89
2023/08/22 04:35:07;;;;;;;17.73;11.30;;;;;;;;;;6306212;22;20172;-88
2023/08/22 04:37:35;;;;;;;13.27;9.70;;;;;;;;;;6306062;22;20184;-89
2023/08/22 04:40:04;;;;;;;9.93;7.73;;;;;;;;;;6305911;22;20236;-89
2023/08/22 04:42:34;;;;;;;17.97;11.83;;;;;;;;;;6306007;22;20170;-89
2023/08/22 04:45:03;;;;;;;11.13;8.40;;;;;;;;;;6306285;22;20182;-90
2023/08/22 04:47:33;;;;;;;14.10;8.37;;;;;;;;;;6305579;22;20169;-86
2023/08/22 04:50:01;;;;;;;8.80;6.60;;;;;;;;;;6305196;22;20182;-85
2023/08/22 04:52:30;;;;;;;5.87;5.33;;;;;;;;;;6305676;22;20189;-89
2023/08/22 04:54:58;;;;;;;8.37;5.73;;;;;;;;;;6306258;22;20180;-89
2023/08/22 04:57:26;;;;;;;12.80;6.70;;;;;;;;;;6306047;22;20176;-89
2023/08/22 04:59:56;;;;;;;6.60;4.93;;;;;;;;;;6305277;22;20168;-89
2023/08/22 05:02:24;;;;;;;6.83;3.83;;;;;;;;;;6306114;22;20181;-90
2023/08/22 05:04:54;;;;;;;7.00;4.33;;;;;;;;;;6306299;22;20267;-90
2023/08/22 05:07:23;;;;;;;12.67;7.43;;;;;;;;;;6305478;22;20176;-89
2023/08/22 05:09:51;;;;;;;7.73;4.93;;;;;;;;;;6305966;22;20178;-89
2023/08/22 05:12:20;;;;;;;5.03;4.37;;;;;;;;;;6305967;22;20171;-89
2023/08/22 05:14:48;;;;;;;6.93;6.00;;;;;;;;;;6306220;22;20200;-90
2023/08/22 05:17:18;;;;;;;7.40;5.13;;;;;;;;;;6305036;22;20218;-90
2023/08/22 05:19:46;;;;;;;9.30;6.57;;;;;;;;;;6305566;22;20164;-90
2023/08/22 05:22:16;;;;;;;11.90;7.87;;;;;;;;;;6306228;22;20177;-90
2023/08/22 05:24:45;;;;;;;6.67;4.87;;;;;;;;;;6306408;22;20181;-90
2023/08/22 05:27:15;;;;;;;13.83;8.27;;;;;;;;;;6305685;22;20174;-91
2023/08/22 05:29:43;;;;;;;10.77;7.23;;;;;;;;;;6305918;22;20172;-90
2023/08/22 05:32:12;;;;;;;13.97;7.60;;;;;;;;;;6306158;22;20182;-90
2023/08/22 05:34:40;;;;;;;8.03;5.77;;;;;;;;;;6305499;22;20184;-90
2023/08/22 05:37:11;;;;;;;8.87;6.20;;;;;;;;;;6305828;22;20181;-92
2023/08/22 05:39:41;;;;;;;14.87;9.67;;;;;;;;;;6305672;22;20208;-89
2023/08/22 05:42:09;;;;;;;11.93;7.37;;;;;;;;;;6305996;22;20207;-89
2023/08/22 05:44:38;;;;;;;8.63;6.70;;;;;;;;;;6304949;22;20162;-90
2023/08/22 05:47:06;;;;;;;10.40;6.70;;;;;;;;;;6305568;22;20180;-88
2023/08/22 05:49:35;;;;;;;7.63;5.50;;;;;;;;;;6306252;22;20184;-89
2023/08/22 05:52:04;;;;;;;7.97;3.73;;;;;;;;;;6305442;22;20193;-91
2023/08/22 05:54:32;;;;;;;8.83;5.60;;;;;;;;;;6305781;22;20200;-90
2023/08/22 05:57:03;;;;;;;11.30;7.87;;;;;;;;;;6306040;22;20172;-89
2023/08/22 05:59:31;;;;;;;9.53;7.40;;;;;;;;;;6305532;22;20177;-89
2023/08/22 06:02:00;;;;;;;12.07;8.97;;;;;;;;;;6306529;22;20234;-84
2023/08/22 06:04:28;;;;;;;14.63;7.47;;;;;;;;;;6307374;22;20248;-84
2023/08/22 06:06:57;;;;;;;10.47;6.77;;;;;;;;;;6307083;22;20168;-84
2023/08/22 06:09:25;;;;;;;12.77;6.83;;;;;;;;;;6307001;22;20259;-84
2023/08/22 06:11:54;;;;;;;8.40;4.47;;;;;;;;;;6307546;22;20178;-84
2023/08/22 06:14:24;;;;;;;12.30;6.80;;;;;;;;;;6307796;22;20196;-84
2023/08/22 06:16:52;;;;;;;8.73;7.10;;;;;;;;;;6307033;22;20175;-84
2023/08/22 06:19:21;;;;;;;5.60;4.90;;;;;;;;;;6307329;22;20178;-84
2023/08/22 06:21:49;;;;;;;12.63;6.57;;;;;;;;;;6307316;22;20176;-84
2023/08/22 06:24:18;;;;;;;8.37;4.13;;;;;;;;;;6307631;22;20174;-84
2023/08/22 06:26:47;;;;;;;4.53;2.97;;;;;;;;;;6306946;22;20214;-84
2023/08/22 06:29:18;;;;;;;3.07;1.00;;;;;;;;;;6306840;22;20206;-84
2023/08/22 06:31:48;;;;;;;10.43;7.00;;;;;;;;;;6307248;22;20174;-84
2023/08/22 06:34:16;;;;;;;9.00;6.20;;;;;;;;;;6307334;22;20192;-84
2023/08/22 06:36:45;;;;;;;20.80;6.50;;;;;;;;;;6306526;22;20176;-84
2023/08/22 06:39:17;;;;;;;8.30;5.97;;;;;;;;;;6306750;22;20209;-86
2023/08/22 06:41:46;;;;;;;4.30;3.67;;;;;;;;;;6307109;22;20196;-83
2023/08/22 06:44:14;;;;;;;3.03;2.07;;;;;;;;;;6307109;22;20249;-84
2023/08/22 06:46:43;;;;;;;5.07;3.67;;;;;;;;;;6306326;22;20204;-84
2023/08/22 06:49:14;;;;;;;5.73;5.07;;;;;;;;;;6307232;22;20176;-84
2023/08/22 06:51:46;;;;;;;6.30;3.87;;;;;;;;;;6307368;22;20190;-84
2023/08/22 06:54:15;;;;;;;1.93;1.60;;;;;;;;;;6306924;22;20189;-84
2023/08/22 06:56:43;;;;;;;2.63;1.63;;;;;;;;;;6306366;22;20246;-85
2023/08/22 06:59:12;;;;;;;1.90;1.23;;;;;;;;;;6307437;22;20179;-84
2023/08/22 07:01:40;;;;;;;2.10;1.70;;;;;;;;;;6307509;22;20171;-84
2023/08/22 07:04:09;;;;;;;0.87;0.87;;;;;;;;;;6306560;22;20168;-85
2023/08/22 07:06:45;;;;;;;2.13;1.43;;;;;;;;;;6306673;22;20260;-85
2023/08/22 07:09:17;;;;;;;2.50;1.37;;;;;;;;;;6307136;22;20173;-85
2023/08/22 07:11:45;;;;;;;0.83;0.83;;;;;;;;;;6306567;22;20184;-84
2023/08/22 07:14:16;;;;;;;2.97;1.70;;;;;;;;;;6306048;22;20216;-86
2023/08/22 07:16:44;;;;;;;1.87;1.77;;;;;;;;;;6306955;22;20196;-84
2023/08/22 07:19:16;;;;;;;3.27;1.90;;;;;;;;;;6307264;22;20258;-85
2023/08/22 07:22:04;;;;;;;8.27;2.13;;;;;;;;;;6306262;22;20182;-84
2023/08/22 07:24:36;;;;;;;0.93;0.93;;;;;;;;;;6306806;22;20170;-84
2023/08/22 07:27:11;;;;;;;6.03;1.23;;;;;;;;;;6306514;22;20179;-85
2023/08/22 07:29:40;;;;;;;1.67;1.40;;;;;;;;;;6306617;22;20174;-84
2023/08/22 07:32:09;;;;;;;1.23;1.13;;;;;;;;;;6306496;22;20185;-84
2023/08/22 07:34:38;;;;;;;7.10;2.00;;;;;;;;;;6306304;22;20186;-85
2023/08/22 07:37:08;;;;;;;6.70;2.40;;;;;;;;;;6306409;22;20197;-84
2023/08/22 07:39:36;;;;;;;2.80;1.70;;;;;;;;;;6305774;22;20210;-85
2023/08/22 07:42:05;;;;;;;1.03;0.93;;;;;;;;;;6306572;22;20182;-85
2023/08/22 07:44:34;;;;;;;4.90;2.80;;;;;;;;;;6306499;22;20190;-84
2023/08/22 07:47:03;;;;;;;7.13;2.10;;;;;;;;;;6306352;22;20176;-85
2023/08/22 07:49:31;;;;;;;4.37;3.10;;;;;;;;;;6305916;22;20182;-84
2023/08/22 07:52:00;;;;;;;6.53;2.77;;;;;;;;;;6306627;22;20215;-84
2023/08/22 07:54:30;;;;;;;1.33;0.57;;;;;;;;;;6306775;22;20199;-84
2023/08/22 07:56:58;;;;;;;5.17;2.40;;;;;;;;;;6305749;22;20233;-84
2023/08/22 07:59:46;;;;;;;14.20;2.67;;;;;;;;;;6306571;22;20179;-85
2023/08/22 08:02:14;;;;;;;0.67;0.67;;;;;;;;;;6306621;22;20178;-85
2023/08/22 08:04:43;;;;;;;4.10;2.10;;;;;;;;;;6306070;22;20164;-84
2023/08/22 08:07:15;;;;;;;3.40;2.87;;;;;;;;;;6305752;22;20180;-84
2023/08/22 08:09:45;;;;;;;2.50;2.00;;;;;;;;;;6306473;22;20221;-84
2023/08/22 08:12:13;;;;;;;1.43;1.33;;;;;;;;;;6306251;22;20175;-85
2023/08/22 08:14:42;;;;;;;1.97;1.47;;;;;;;;;;6305786;22;20187;-84
2023/08/22 08:17:11;;;;;;;4.93;2.50;;;;;;;;;;6306066;22;20167;-85
2023/08/22 08:19:39;;;;;;;6.43;1.77;;;;;;;;;;6306197;22;20175;-85
2023/08/22 08:22:08;;;;;;;1.07;1.00;;;;;;;;;;6306172;22;20172;-86
2023/08/22 08:24:37;;;;;;;5.73;2.40;;;;;;;;;;6305313;22;20170;-85
2023/08/22 08:27:07;;;;;;;0.87;0.70;;;;;;;;;;6305908;22;20179;-85
2023/08/22 08:29:36;;;;;;;2.93;1.27;;;;;;;;;;6305992;22;20170;-85
2023/08/22 08:32:05;;;;;;;11.87;3.73;;;;;;;;;;6305735;22;20196;-86
2023/08/22 08:34:33;;;;;;;11.97;4.03;;;;;;;;;;6305640;22;20198;-84
2023/08/22 08:37:04;;;;;;;2.07;1.53;;;;;;;;;;6305649;22;20169;-85
2023/08/22 08:39:32;;;;;;;8.77;3.33;;;;;;;;;;6305269;22;20207;-85
2023/08/22 08:42:04;;;;;;;8.57;4.43;;;;;;;;;;6305111;22;20286;-84
2023/08/22 08:44:35;;;;;;;2.10;1.90;;;;;;;;;;6305988;22;20175;-85
2023/08/22 08:47:04;;;;;;;3.80;2.40;;;;;;;;;;6305978;22;20175;-85
2023/08/22 08:49:34;;;;;;;2.40;1.03;;;;;;;;;;6305432;22;20178;-85
2023/08/22 08:52:06;;;;;;;3.00;0.87;;;;;;;;;;6305606;22;20196;-85
2023/08/22 08:54:35;;;;;;;3.10;2.27;;;;;;;;;;6305682;22;20165;-86
2023/08/22 08:57:04;;;;;;;2.40;1.67;;;;;;;;;;6305958;22;20184;-85
2023/08/22 08:59:34;;;;;;;9.60;3.27;;;;;;;;;;6305328;22;20228;-85
2023/08/22 09:02:03;;;;;;;1.70;1.23;;;;;;;;;;6306310;22;20177;-85
2023/08/22 09:04:32;;;;;;;4.43;2.33;;;;;;;;;;6305378;22;20216;-85
2023/08/22 09:07:01;;;;;;;3.60;2.50;;;;;;;;;;6304739;22;20172;-85
2023/08/22 09:09:35;;;;;;;3.10;2.07;;;;;;;;;;6305148;22;20213;-85
2023/08/22 09:12:06;;;;;;;0.60;0.60;;;;;;;;;;6306203;22;20175;-81
2023/08/22 09:14:41;;;;;;;3.43;1.63;;;;;;;;;;6305586;22;20175;-81
2023/08/22 09:17:09;;;;;;;3.23;2.10;;;;;;;;;;6305271;22;20166;-82
2023/08/22 09:19:38;;;;;;;1.27;1.00;;;;;;;;;;6305553;22;20174;-82
2023/08/22 09:22:06;;;;;;;2.90;1.47;;;;;;;;;;6305352;22;20164;-81
2023/08/22 09:24:35;;;;;;;2.13;0.73;;;;;;;;;;6305245;22;20188;-81
2023/08/22 09:27:06;;;;;;;2.47;2.23;;;;;;;;;;6305680;22;20197;-81
2023/08/22 09:29:36;;;;;;;3.43;1.63;;;;;;;;;;6305805;22;20185;-81
2023/08/22 09:32:05;;;;;;;1.47;0.93;;;;;;;;;;6306026;22;20183;-82
2023/08/22 09:34:34;;;;;;;0.73;0.73;;;;;;;;;;6305171;22;20190;-82
2023/08/22 09:37:03;;;;;;;0.87;0.80;;;;;;;;;;6304940;22;20199;-82
2023/08/22 09:39:33;;;;;;;4.37;2.03;;;;;;;;;;6305604;22;20216;-82
2023/08/22 09:42:02;;;;;;;2.47;1.23;;;;;;;;;;6305405;22;20177;-82
2023/08/22 09:44:33;;;;;;;6.70;2.47;;;;;;;;;;6304793;22;20172;-85
2023/08/22 09:47:04;;;;;;;3.73;1.87;;;;;;;;;;6305178;22;20184;-85
2023/08/22 09:49:33;;;;;;;5.60;2.43;;;;;;;;;;6305643;22;20185;-85
2023/08/22 09:52:02;;;;;;;4.47;1.50;;;;;;;;;;6305011;22;20242;-86
2023/08/22 09:54:31;;;;;;;3.07;1.60;;;;;;;;;;6305080;22;20169;-84
2023/08/22 09:56:59;;;;;;;1.73;1.63;;;;;;;;;;6305291;22;20230;-85
2023/08/22 09:59:28;;;;;;;7.27;1.73;;;;;;;;;;6304870;22;20272;-85
2023/08/22 10:01:58;;;;;;;2.17;1.73;;;;;;;;;;6305029;22;20173;-86
2023/08/22 10:04:31;;;;;;;5.17;2.37;;;;;;;;;;6305108;22;20173;-84
2023/08/22 10:07:00;;;;;;;3.93;2.00;;;;;;;;;;6305227;22;20167;-85
2023/08/22 10:09:29;;;;;;;1.47;1.37;;;;;;;;;;6304863;22;20247;-85
2023/08/22 10:11:59;;;;;;;0.90;0.90;;;;;;;;;;6305116;22;20251;-85
2023/08/22 10:14:30;;;;;;;5.50;2.77;;;;;;;;;;6305508;22;20210;-85
2023/08/22 10:16:59;;;;;;;2.07;1.50;;;;;;;;;;6305217;22;20484;-85
2023/08/22 10:19:31;;;;;;;2.83;1.70;;;;;;;;;;6304477;22;20256;-85
2023/08/22 10:22:07;;;;;;;3.20;1.70;;;;;;;;;;6305532;22;20181;-85
2023/08/22 10:24:36;;;;;;;4.77;2.10;;;;;;;;;;6305207;22;20244;-85
2023/08/22 10:27:05;;;;;;;4.53;0.80;;;;;;;;;;6305011;22;20203;-85
2023/08/22 10:29:34;;;;;;;2.13;1.80;;;;;;;;;;6304750;22;20187;-86
2023/08/22 10:32:23;;;;;;;1.40;1.30;;;;;;;;;;6305494;22;20179;-86
2023/08/22 10:35:06;;;;;;;1.87;1.67;;;;;;;;;;6304960;22;20176;-86
2023/08/22 10:37:45;;;;;;;2.10;1.90;;;;;;;;;;6285596;22;20213;-86
2023/08/22 10:40:21;;;;;;;0.70;0.60;;;;;;;;;;6304747;22;20201;-86
2023/08/22 10:42:53;;;;;;;1.53;1.43;;;;;;;;;;6305392;22;20234;-85
2023/08/22 10:45:21;;;;;;;0.40;0.40;;;;;;;;;;6304897;22;20174;-85
2023/08/22 10:48:05;;;;;;;1.93;1.43;;;;;;;;;;6305736;22;20178;-85
2023/08/22 10:50:34;;;;;;;2.43;1.53;;;;;;;;;;6307060;22;20170;-85
2023/08/22 10:53:18;;;;;;;1.97;1.83;;;;;;;;;;6307067;22;20179;-85
2023/08/22 10:55:47;;;;;;;1.83;1.30;;;;;;;;;;6306525;22;20257;-86
2023/08/22 10:58:38;;;;;;;0.60;0.60;;;;;;;;;;6307162;22;20187;-86
2023/08/22 11:01:08;;;;;;;0.87;0.73;;;;;;;;;;6307126;22;20174;-86
2023/08/22 11:03:39;;;;;;;3.50;1.53;;;;;;;;;;6306707;22;20202;-85
2023/08/22 11:06:15;;;;;;;3.93;1.73;;;;;;;;;;6307278;22;20169;-85
2023/08/22 11:08:45;;;;;;;1.40;1.30;;;;;;;;;;6307495;22;20178;-85
2023/08/22 11:11:17;;;;;;;1.03;0.60;;;;;;;;;;6306423;22;20177;-86
2023/08/22 11:13:45;;;;;;;2.03;1.20;;;;;;;;;;6307089;22;20179;-85
2023/08/22 11:16:18;;;;;;;2.47;1.40;;;;;;;;;;6306637;22;20270;-87
2023/08/22 11:18:48;;;;;;;0.80;0.80;;;;;;;;;;6306800;22;20171;-86
2023/08/22 11:21:17;;;;;;;8.27;1.43;;;;;;;;;;6306178;22;20178;-85
2023/08/22 11:23:47;;;;;;;1.40;1.30;;;;;;;;;;6306658;22;20175;-82
2023/08/22 11:26:22;;;;;;;3.03;2.03;;;;;;;;;;6307233;22;20171;-84
2023/08/22 11:28:51;;;;;;;2.23;1.17;;;;;;;;;;6306597;22;20185;-87
2023/08/22 11:31:20;;;;;;;1.20;1.00;;;;;;;;;;6306070;22;20170;-85
2023/08/22 11:33:49;;;;;;;1.90;1.03;;;;;;;;;;6307071;22;20268;-85
2023/08/22 11:36:20;;;;;;;1.67;1.20;;;;;;;;;;6306747;22;20188;-87
2023/08/22 11:38:54;;;;;;;2.73;1.57;;;;;;;;;;6305842;22;20171;-86
2023/08/22 11:41:23;;;;;;;4.67;2.07;;;;;;;;;;6307263;22;20178;-86
2023/08/22 11:43:54;;;;;;;2.47;1.07;;;;;;;;;;6306380;22;20200;-84
2023/08/22 11:46:23;;;;;;;7.90;2.67;;;;;;;;;;6306076;22;20165;-86
2023/08/22 11:48:52;;;;;;;2.10;1.03;;;;;;;;;;6306416;22;20205;-85
2023/08/22 11:51:22;;;;;;;1.00;1.00;;;;;;;;;;6306969;22;20283;-85
2023/08/22 11:53:51;;;;;;;5.63;3.43;;;;;;;;;;6306922;22;20232;-85
2023/08/22 11:56:21;;;;;;;3.47;2.10;;;;;;;;;;6306138;22;20171;-85
2023/08/22 11:58:53;;;;;;;3.13;2.40;;;;;;;;;;6305834;22;20202;-85
2023/08/22 12:01:23;;;;;;;5.57;2.33;;;;;;;;;;6306467;22;20172;-85
2023/08/22 12:03:56;;;;;;;5.70;2.03;;;;;;;;;;6306697;22;20170;-85
2023/08/22 12:06:25;;;;;;;1.57;1.23;;;;;;;;;;6306103;22;20181;-85
2023/08/22 12:09:00;;;;;;;3.27;1.37;;;;;;;;;;6306751;22;20169;-85
2023/08/22 12:11:30;;;;;;;4.43;2.80;;;;;;;;;;6306445;22;20180;-85
2023/08/22 12:13:59;;;;;;;6.47;3.00;;;;;;;;;;6306308;22;20312;-90
2023/08/22 12:16:28;;;;;;;2.27;1.53;;;;;;;;;;6305655;22;20166;-90
2023/08/22 12:18:57;;;;;;;1.80;1.20;;;;;;;;;;6306771;22;20202;-90
2023/08/22 12:21:28;;;;;;;2.20;1.70;;;;;;;;;;6306146;22;20220;-89
2023/08/22 12:23:56;;;;;;;2.07;1.77;;;;;;;;;;6305744;22;20171;-90
2023/08/22 12:26:25;;;;;;;1.20;1.10;;;;;;;;;;6306259;22;20171;-89
2023/08/22 12:28:58;;;;;;;3.57;2.07;;;;;;;;;;6306563;22;20164;-90
2023/08/22 12:31:31;;;;;;;0.90;0.90;;;;;;;;;;6306044;22;20175;-90
2023/08/22 12:34:00;;;;;;;1.43;1.13;;;;;;;;;;6305974;22;20170;-91
2023/08/22 12:36:29;;;;;;;4.40;1.80;;;;;;;;;;6306129;22;20243;-91
2023/08/22 12:38:57;;;;;;;0.73;0.73;;;;;;;;;;6306018;22;20214;-91
2023/08/22 12:41:26;;;;;;;3.57;1.27;;;;;;;;;;6305898;22;20197;-91
2023/08/22 12:43:54;;;;;;;1.40;1.30;;;;;;;;;;6306186;22;20179;-91
2023/08/22 12:46:24;;;;;;;4.60;2.27;;;;;;;;;;6306344;22;20194;-90
2023/08/22 12:48:53;;;;;;;3.13;2.57;;;;;;;;;;6305914;22;20258;-86
2023/08/22 12:51:22;;;;;;;2.13;1.30;;;;;;;;;;6305462;22;20290;-87
2023/08/22 12:53:50;;;;;;;1.90;1.33;;;;;;;;;;6306007;22;20176;-86
2023/08/22 12:56:19;;;;;;;1.80;1.17;;;;;;;;;;6306091;22;20211;-87
2023/08/22 12:58:47;;;;;;;8.00;3.00;;;;;;;;;;6305011;22;20185;-87
2023/08/22 13:01:16;;;;;;;3.27;1.77;;;;;;;;;;6306365;22;20172;-87
2023/08/22 13:03:54;;;;;;;1.50;1.40;;;;;;;;;;6306062;22;20250;-87
2023/08/22 13:06:23;;;;;;;6.03;2.37;;;;;;;;;;6305549;22;20194;-87
2023/08/22 13:08:51;;;;;;;4.43;2.63;;;;;;;;;;6305268;22;20168;-87
2023/08/22 13:11:26;;;;;;;2.23;1.60;;;;;;;;;;6306168;22;20183;-87
2023/08/22 13:13:55;;;;;;;4.33;2.13;;;;;;;;;;6305915;22;20179;-87
2023/08/22 13:16:23;;;;;;;1.30;1.03;;;;;;;;;;6305268;22;20175;-87
2023/08/22 13:18:54;;;;;;;0.80;0.80;;;;;;;;;;6305645;22;20218;-87
2023/08/22 13:21:22;;;;;;;1.20;1.10;;;;;;;;;;6305887;22;20201;-87
2023/08/22 13:23:51;;;;;;;7.40;1.57;;;;;;;;;;6305742;22;20195;-87
2023/08/22 13:26:19;;;;;;;1.60;1.30;;;;;;;;;;6305511;22;20261;-87
2023/08/22 13:28:50;;;;;;;1.43;1.30;;;;;;;;;;6305542;22;20173;-86
2023/08/22 13:31:19;;;;;;;2.13;1.07;;;;;;;;;;6306001;22;20187;-87
2023/08/22 13:33:48;;;;;;;2.67;1.40;;;;;;;;;;6304965;22;20197;-87
2023/08/22 13:36:18;;;;;;;3.00;1.50;;;;;;;;;;6305933;22;20181;-87
2023/08/22 13:38:47;;;;;;;1.53;1.50;;;;;;;;;;6305299;22;20187;-86
2023/08/22 13:41:15;;;;;;;0.83;0.83;;;;;;;;;;6305159;22;20168;-87
2023/08/22 13:43:44;;;;;;;0.77;0.70;;;;;;;;;;6305271;22;20181;-86
2023/08/22 13:46:12;;;;;;;2.17;2.03;;;;;;;;;;6305595;22;20191;-86
2023/08/22 13:48:42;;;;;;;4.87;1.43;;;;;;;;;;6305427;22;20169;-87
2023/08/22 13:51:11;;;;;;;0.60;0.60;;;;;;;;;;6304634;22;20191;-87
2023/08/22 13:53:41;;;;;;;1.40;1.30;;;;;;;;;;6305683;22;20251;-87
2023/08/22 13:56:12;;;;;;;1.83;1.30;;;;;;;;;;6306408;22;20258;-86
2023/08/22 13:58:40;;;;;;;2.27;1.53;;;;;;;;;;6305899;22;20195;-88
2023/08/22 14:01:09;;;;;;;0.70;0.70;;;;;;;;;;6305509;22;20168;-86
2023/08/22 14:03:37;;;;;;;3.27;1.57;;;;;;;;;;6306323;22;20177;-86
2023/08/22 14:06:06;;;;;;;2.23;0.73;;;;;;;;;;6305475;22;20172;-86
2023/08/22 14:08:35;;;;;;;1.03;0.63;;;;;;;;;;6305457;22;20177;-86
2023/08/22 14:11:06;;;;;;;1.10;1.10;;;;;;;;;;6305694;22;20192;-87
2023/08/22 14:13:35;;;;;;;0.53;0.53;;;;;;;;;;6305547;22;20177;-87
2023/08/22 14:16:03;;;;;;;1.40;1.30;;;;;;;;;;6305320;22;20180;-87
2023/08/22 14:18:32;;;;;;;2.83;1.30;;;;;;;;;;6304702;22;20280;-87
2023/08/22 14:21:01;;;;;;;2.20;0.83;;;;;;;;;;6305280;22;20175;-86
2023/08/22 14:23:29;;;;;;;1.87;1.30;;;;;;;;;;6307077;22;20221;-87
2023/08/22 14:25:58;;;;;;;1.70;0.93;;;;;;;;;;6307866;22;20252;-86
2023/08/22 14:28:28;;;;;;;1.20;1.10;;;;;;;;;;6306938;22;20200;-86
2023/08/22 14:31:00;;;;;;;2.20;1.37;;;;;;;;;;6307836;22;20179;-87
2023/08/22 14:33:29;;;;;;;0.70;0.57;;;;;;;;;;6307400;22;20169;-86
2023/08/22 14:35:58;;;;;;;1.03;1.00;;;;;;;;;;6306775;22;20189;-87
2023/08/22 14:38:26;;;;;;;2.23;1.53;;;;;;;;;;6307082;22;20188;-86
2023/08/22 14:40:55;;;;;;;1.00;0.97;;;;;;;;;;6307083;22;20207;-86
2023/08/22 14:43:26;;;;;;;2.27;1.13;;;;;;;;;;6307369;22;20207;-85
2023/08/22 14:45:57;;;;;;;1.10;1.10;;;;;;;;;;6306700;22;20168;-86
2023/08/22 14:48:25;;;;;;;3.33;0.90;;;;;;;;;;6307051;22;20164;-86
2023/08/22 14:50:54;;;;;;;2.10;1.53;;;;;;;;;;6307079;22;20447;-86
2023/08/22 14:53:23;;;;;;;0.63;0.63;;;;;;;;;;6307109;22;20184;-86